Time;durP1;ratioP1;P1;durP2;ratioP2;P2;SDS_P1;SDS_P2;PMS_P1;PMS_P2;Temp;Humidity;BMP_temperature;BMP_pressure;BME280_temperature;BME280_humidity;BME280_pressure;Samples;Min_cycle;Max_cycle;Signal;HPM_P1;HPM_P2
2022/10/20 00:01:34;;;;;;;18.40;8.65;;;;;;;;;;5006079;28;20077;-72
2022/10/20 00:04:00;;;;;;;21.40;9.48;;;;;;;;;;5009252;28;20038;-73
2022/10/20 00:06:28;;;;;;;26.80;10.82;;;;;;;;;;5011079;28;20773;-73
2022/10/20 00:08:54;;;;;;;17.77;11.38;;;;;;;;;;5010557;28;20141;-74
2022/10/20 00:11:21;;;;;;;24.25;11.40;;;;;;;;;;5009308;28;20026;-72
2022/10/20 00:13:47;;;;;;;21.75;11.32;;;;;;;;;;5007661;28;20354;-73
2022/10/20 00:16:14;;;;;;;17.83;11.23;;;;;;;;;;5011377;28;20077;-73
2022/10/20 00:18:40;;;;;;;24.13;12.77;;;;;;;;;;5002073;28;20466;-72
2022/10/20 00:21:07;;;;;;;22.38;11.25;;;;;;;;;;5012221;28;20041;-72
2022/10/20 00:23:33;;;;;;;23.58;12.80;;;;;;;;;;5004373;28;20034;-73
2022/10/20 00:26:25;;;;;;;27.77;13.77;;;;;;;;;;5007673;28;20039;-72
2022/10/20 00:28:52;;;;;;;50.25;20.13;;;;;;;;;;5004716;28;20049;-73
2022/10/20 00:31:19;;;;;;;29.95;15.57;;;;;;;;;;5013101;28;20029;-72
2022/10/20 00:33:45;;;;;;;32.22;16.40;;;;;;;;;;5013842;28;20040;-73
2022/10/20 00:36:12;;;;;;;25.80;13.32;;;;;;;;;;5007748;28;20398;-73
2022/10/20 00:38:38;;;;;;;34.17;17.60;;;;;;;;;;5007206;28;20100;-73
2022/10/20 00:41:05;;;;;;;25.55;13.70;;;;;;;;;;5015294;28;20465;-72
2022/10/20 00:44:03;;;;;;;28.67;15.40;;;;;;;;;;5011279;28;20041;-72
2022/10/20 00:46:31;;;;;;;26.90;14.43;;;;;;;;;;4978273;28;20137;-72
2022/10/20 00:49:01;;;;;;;29.70;16.15;;;;;;;;;;5010463;28;20034;-73
2022/10/20 00:51:28;;;;;;;29.48;16.55;;;;;;;;;;5010398;28;20481;-72
2022/10/20 00:53:57;;;;;;;28.95;14.82;;;;;;;;;;5007378;28;20045;-72
2022/10/20 00:56:23;;;;;;;26.55;11.73;;;;;;;;;;5010159;28;20068;-72
2022/10/20 00:58:50;;;;;;;25.75;12.43;;;;;;;;;;5009854;28;20053;-72
2022/10/20 01:01:16;;;;;;;26.75;15.20;;;;;;;;;;5005745;28;20057;-72
2022/10/20 01:03:51;;;;;;;33.15;17.92;;;;;;;;;;5003119;28;20726;-72
2022/10/20 01:06:19;;;;;;;31.25;18.65;;;;;;;;;;5010914;28;20029;-72
2022/10/20 01:08:45;;;;;;;26.52;14.82;;;;;;;;;;5006589;28;20038;-73
2022/10/20 01:11:29;;;;;;;26.92;14.35;;;;;;;;;;5002377;28;20092;-73
2022/10/20 01:13:55;;;;;;;32.60;16.23;;;;;;;;;;5009995;28;20154;-72
2022/10/20 01:16:40;;;;;;;29.25;14.52;;;;;;;;;;5007178;28;20140;-72
2022/10/20 01:19:29;;;;;;;34.67;14.57;;;;;;;;;;5003181;28;20477;-72
2022/10/20 01:22:03;;;;;;;28.42;14.63;;;;;;;;;;4994333;28;20058;-73
2022/10/20 01:24:41;;;;;;;26.27;14.32;;;;;;;;;;5003572;28;20100;-72
2022/10/20 01:27:13;;;;;;;24.05;13.70;;;;;;;;;;5009683;28;20640;-72
2022/10/20 01:29:43;;;;;;;26.98;14.98;;;;;;;;;;5013007;28;20030;-72
2022/10/20 01:32:14;;;;;;;35.05;15.32;;;;;;;;;;5007299;28;20041;-73
2022/10/20 01:34:42;;;;;;;31.10;15.40;;;;;;;;;;5007904;28;20101;-72
2022/10/20 01:37:12;;;;;;;28.45;13.82;;;;;;;;;;5012574;28;20038;-72
2022/10/20 01:39:40;;;;;;;33.85;15.82;;;;;;;;;;5013487;28;20132;-72
2022/10/20 01:42:08;;;;;;;28.42;15.52;;;;;;;;;;5008536;28;20091;-73
2022/10/20 01:44:35;;;;;;;32.05;15.15;;;;;;;;;;4990572;28;20025;-73
2022/10/20 01:47:02;;;;;;;49.28;24.33;;;;;;;;;;5009882;28;20040;-73
2022/10/20 01:49:28;;;;;;;38.97;19.05;;;;;;;;;;5009707;28;20064;-73
2022/10/20 01:51:55;;;;;;;35.60;16.67;;;;;;;;;;5006859;28;20068;-72
2022/10/20 01:54:26;;;;;;;40.50;19.63;;;;;;;;;;5011006;28;20058;-72
2022/10/20 01:57:08;;;;;;;32.42;20.80;;;;;;;;;;5008514;28;20034;-73
2022/10/20 01:59:34;;;;;;;;;;;;;;;;;;5011426;28;20038;-73
2022/10/20 02:02:00;;;;;;;40.65;20.60;;;;;;;;;;5011551;28;19921;-72
2022/10/20 02:04:32;;;;;;;58.25;21.80;;;;;;;;;;5002479;28;20037;-73
2022/10/20 02:06:59;;;;;;;40.85;21.70;;;;;;;;;;5008114;28;20030;-72
2022/10/20 02:09:31;;;;;;;41.85;22.77;;;;;;;;;;5006351;28;20038;-73
2022/10/20 02:12:07;;;;;;;40.65;21.58;;;;;;;;;;4984575;28;20033;-72
2022/10/20 02:14:33;;;;;;;41.35;20.58;;;;;;;;;;5009108;28;20042;-73
2022/10/20 02:17:03;;;;;;;37.90;19.75;;;;;;;;;;5013851;28;20064;-73
2022/10/20 02:19:33;;;;;;;51.58;22.75;;;;;;;;;;5010691;28;20038;-72
2022/10/20 02:21:59;;;;;;;39.08;22.77;;;;;;;;;;5008098;28;20030;-72
2022/10/20 02:24:33;;;;;;;37.78;20.88;;;;;;;;;;5008189;28;20565;-72
2022/10/20 02:27:02;;;;;;;38.30;21.40;;;;;;;;;;5006562;28;20628;-72
2022/10/20 02:29:31;;;;;;;38.95;21.17;;;;;;;;;;5006154;28;20037;-73
2022/10/20 02:31:57;;;;;;;49.47;24.17;;;;;;;;;;5009341;28;20044;-73
2022/10/20 02:34:27;;;;;;;34.95;21.30;;;;;;;;;;5009051;28;20037;-73
2022/10/20 02:36:56;;;;;;;43.40;24.77;;;;;;;;;;5003101;28;20056;-73
2022/10/20 02:39:22;;;;;;;65.78;32.45;;;;;;;;;;5009205;28;20121;-72
2022/10/20 02:41:48;;;;;;;52.30;29.33;;;;;;;;;;4995795;28;20462;-73
2022/10/20 02:44:14;;;;;;;39.33;24.63;;;;;;;;;;4999791;28;20095;-73
2022/10/20 02:46:40;;;;;;;47.40;25.73;;;;;;;;;;5012255;28;20045;-73
2022/10/20 02:49:06;;;;;;;49.10;25.83;;;;;;;;;;5002277;28;20042;-73
2022/10/20 02:51:32;;;;;;;43.80;23.58;;;;;;;;;;5009926;28;20025;-72
2022/10/20 02:53:58;;;;;;;36.83;20.73;;;;;;;;;;5010420;28;20469;-73
2022/10/20 02:56:24;;;;;;;41.53;24.00;;;;;;;;;;5011025;28;20037;-72
2022/10/20 02:58:50;;;;;;;49.25;24.73;;;;;;;;;;5011423;28;20035;-73
2022/10/20 03:01:16;;;;;;;40.67;26.67;;;;;;;;;;5013800;28;20075;-73
2022/10/20 03:03:42;;;;;;;59.75;29.52;;;;;;;;;;5012660;28;20045;-73
2022/10/20 03:06:10;;;;;;;52.05;28.30;;;;;;;;;;5005183;28;20034;-72
2022/10/20 03:08:36;;;;;;;66.85;34.85;;;;;;;;;;5008120;28;20080;-73
2022/10/20 03:11:02;;;;;;;45.63;27.20;;;;;;;;;;5010214;28;20030;-73
2022/10/20 03:13:28;;;;;;;68.57;29.30;;;;;;;;;;5004545;28;20552;-72
2022/10/20 03:15:54;;;;;;;51.35;27.33;;;;;;;;;;5005236;28;20099;-72
2022/10/20 03:18:20;;;;;;;65.82;31.08;;;;;;;;;;5012372;28;20108;-72
2022/10/20 03:20:46;;;;;;;46.90;25.67;;;;;;;;;;5000717;28;20714;-72
2022/10/20 03:23:12;;;;;;;37.70;22.23;;;;;;;;;;5006181;28;20049;-73
2022/10/20 03:25:38;;;;;;;38.75;22.15;;;;;;;;;;5002051;28;20877;-73
2022/10/20 03:28:04;;;;;;;28.52;18.20;;;;;;;;;;5005504;28;20057;-73
2022/10/20 03:30:30;;;;;;;30.20;17.95;;;;;;;;;;5004204;28;20064;-73
2022/10/20 03:32:56;;;;;;;26.58;17.15;;;;;;;;;;4996090;28;20435;-72
2022/10/20 03:35:22;;;;;;;26.92;18.33;;;;;;;;;;5016555;28;20026;-73
2022/10/20 03:37:48;;;;;;;31.98;17.70;;;;;;;;;;5009313;28;20504;-73
2022/10/20 03:40:14;;;;;;;30.02;17.88;;;;;;;;;;5009620;28;20407;-73
2022/10/20 03:42:40;;;;;;;31.77;19.83;;;;;;;;;;5010269;28;20034;-73
2022/10/20 03:45:06;;;;;;;28.02;19.77;;;;;;;;;;5013339;28;20024;-73
2022/10/20 03:47:32;;;;;;;26.17;18.23;;;;;;;;;;5010622;28;20054;-72
2022/10/20 03:49:58;;;;;;;30.00;17.90;;;;;;;;;;5014621;28;20060;-73
2022/10/20 03:52:24;;;;;;;23.80;16.27;;;;;;;;;;5010057;28;20461;-73
2022/10/20 03:54:50;;;;;;;25.38;16.02;;;;;;;;;;5014880;28;20063;-73
2022/10/20 03:57:16;;;;;;;26.45;17.33;;;;;;;;;;5011090;28;20052;-73
2022/10/20 03:59:42;;;;;;;27.25;18.42;;;;;;;;;;5011106;28;20035;-72
2022/10/20 04:02:18;;;;;;;34.97;19.85;;;;;;;;;;5012490;28;20047;-73
2022/10/20 04:04:44;;;;;;;35.35;20.95;;;;;;;;;;5010919;28;20033;-73
2022/10/20 04:07:10;;;;;;;33.08;20.17;;;;;;;;;;5000398;28;20366;-72
2022/10/20 04:09:36;;;;;;;45.42;24.63;;;;;;;;;;5007234;28;20030;-73
2022/10/20 04:12:02;;;;;;;38.67;21.83;;;;;;;;;;5011365;28;20034;-73
2022/10/20 04:14:28;;;;;;;43.30;21.80;;;;;;;;;;5007046;28;20115;-73
2022/10/20 04:16:54;;;;;;;56.85;26.25;;;;;;;;;;5008826;28;20041;-72
2022/10/20 04:19:20;;;;;;;45.97;26.15;;;;;;;;;;5010847;28;20038;-73
2022/10/20 04:21:46;;;;;;;42.63;20.98;;;;;;;;;;5010985;28;20643;-72
2022/10/20 04:24:12;;;;;;;39.05;22.55;;;;;;;;;;5001115;28;20030;-72
2022/10/20 04:26:38;;;;;;;50.30;24.67;;;;;;;;;;5015378;28;20025;-73
2022/10/20 04:29:04;;;;;;;53.45;26.92;;;;;;;;;;5012878;28;20033;-72
2022/10/20 04:31:30;;;;;;;49.35;26.02;;;;;;;;;;5005170;28;20557;-73
2022/10/20 04:33:56;;;;;;;44.47;24.38;;;;;;;;;;5013083;28;20076;-73
2022/10/20 04:36:22;;;;;;;40.78;20.45;;;;;;;;;;5009536;28;20415;-73
2022/10/20 04:38:48;;;;;;;43.75;24.13;;;;;;;;;;5015773;28;20048;-73
2022/10/20 04:41:14;;;;;;;39.95;21.77;;;;;;;;;;5011928;28;20037;-73
2022/10/20 04:43:40;;;;;;;40.17;21.65;;;;;;;;;;5013793;28;20029;-72
2022/10/20 04:46:06;;;;;;;37.53;21.70;;;;;;;;;;5010877;28;20393;-72
2022/10/20 04:48:32;;;;;;;31.50;19.50;;;;;;;;;;5007011;28;20061;-72
2022/10/20 04:51:02;;;;;;;30.35;18.58;;;;;;;;;;5001601;28;20058;-72
2022/10/20 04:53:28;;;;;;;27.67;17.15;;;;;;;;;;5010975;28;20087;-73
2022/10/20 04:55:55;;;;;;;31.42;17.23;;;;;;;;;;5008463;28;20051;-72
2022/10/20 04:58:21;;;;;;;34.80;19.10;;;;;;;;;;5012274;28;20034;-72
2022/10/20 05:00:47;;;;;;;33.08;19.85;;;;;;;;;;5009345;28;20056;-73
2022/10/20 05:03:13;;;;;;;32.25;19.67;;;;;;;;;;5004458;28;20053;-72
2022/10/20 05:05:39;;;;;;;38.38;21.67;;;;;;;;;;5009972;28;20029;-73
2022/10/20 05:08:05;;;;;;;30.67;19.45;;;;;;;;;;5010355;28;20084;-72
2022/10/20 05:10:31;;;;;;;32.92;19.73;;;;;;;;;;5006479;28;20597;-73
2022/10/20 05:12:57;;;;;;;33.08;19.70;;;;;;;;;;5009693;28;20044;-73
2022/10/20 05:15:23;;;;;;;35.15;20.95;;;;;;;;;;5007227;28;20040;-73
2022/10/20 05:17:49;;;;;;;44.30;24.67;;;;;;;;;;5004980;28;20067;-73
2022/10/20 05:20:15;;;;;;;42.33;24.08;;;;;;;;;;5009350;28;20061;-73
2022/10/20 05:22:41;;;;;;;39.53;22.40;;;;;;;;;;5003942;28;20065;-73
2022/10/20 05:25:08;;;;;;;34.13;19.80;;;;;;;;;;5007723;28;20030;-73
2022/10/20 05:27:34;;;;;;;36.30;22.85;;;;;;;;;;5008263;28;20029;-71
2022/10/20 05:30:01;;;;;;;38.70;23.15;;;;;;;;;;5009466;28;20034;-73
2022/10/20 05:32:28;;;;;;;35.42;21.73;;;;;;;;;;5011952;28;20459;-73
2022/10/20 05:34:54;;;;;;;42.25;23.77;;;;;;;;;;5015721;28;20750;-73
2022/10/20 05:37:20;;;;;;;46.95;24.85;;;;;;;;;;5010131;28;20030;-73
2022/10/20 05:39:46;;;;;;;39.78;23.88;;;;;;;;;;5007077;28;20038;-73
2022/10/20 05:42:13;;;;;;;38.38;21.52;;;;;;;;;;5002615;28;20034;-73
2022/10/20 05:44:39;;;;;;;35.75;21.05;;;;;;;;;;5011903;28;20045;-73
2022/10/20 05:47:05;;;;;;;35.90;21.75;;;;;;;;;;5012461;28;20503;-73
2022/10/20 05:49:31;;;;;;;39.75;21.85;;;;;;;;;;5010951;28;20036;-73
2022/10/20 05:51:57;;;;;;;41.83;22.73;;;;;;;;;;5011604;28;20741;-73
2022/10/20 05:54:23;;;;;;;40.83;22.67;;;;;;;;;;5002081;28;20069;-73
2022/10/20 05:56:48;;;;;;;50.47;26.70;;;;;;;;;;5008229;28;20076;-73
2022/10/20 05:59:15;;;;;;;41.60;23.20;;;;;;;;;;5011358;28;20038;-73
2022/10/20 06:01:47;;;;;;;44.33;25.42;;;;;;;;;;5009318;28;20030;-73
2022/10/20 06:04:15;;;;;;;45.95;24.27;;;;;;;;;;5006481;28;20034;-73
2022/10/20 06:06:41;;;;;;;51.28;26.58;;;;;;;;;;5004198;28;20034;-73
2022/10/20 06:09:08;;;;;;;42.20;24.02;;;;;;;;;;5009554;28;20033;-73
2022/10/20 06:11:34;;;;;;;50.15;28.25;;;;;;;;;;5004413;28;20473;-73
2022/10/20 06:14:00;;;;;;;44.70;25.77;;;;;;;;;;5009822;28;20432;-74
2022/10/20 06:16:28;;;;;;;39.63;22.30;;;;;;;;;;5010983;28;20034;-73
2022/10/20 06:18:54;;;;;;;37.38;21.75;;;;;;;;;;5005158;28;20025;-73
2022/10/20 06:21:22;;;;;;;30.80;20.08;;;;;;;;;;5010184;28;20116;-73
2022/10/20 06:23:48;;;;;;;34.22;21.30;;;;;;;;;;5004782;28;20048;-73
2022/10/20 06:26:18;;;;;;;41.33;22.70;;;;;;;;;;5004721;28;20033;-73
2022/10/20 06:28:45;;;;;;;36.05;20.60;;;;;;;;;;5007628;28;20113;-72
2022/10/20 06:31:18;;;;;;;33.33;18.55;;;;;;;;;;5008415;28;20455;-73
2022/10/20 06:33:45;;;;;;;34.72;20.48;;;;;;;;;;5004151;28;20038;-73
2022/10/20 06:36:11;;;;;;;38.83;22.92;;;;;;;;;;5013009;28;20071;-73
2022/10/20 06:38:37;;;;;;;35.63;20.73;;;;;;;;;;5010887;28;20033;-73
2022/10/20 06:41:04;;;;;;;39.35;21.55;;;;;;;;;;5008563;28;20034;-73
2022/10/20 06:43:30;;;;;;;40.70;22.25;;;;;;;;;;5005805;28;20535;-73
2022/10/20 06:46:00;;;;;;;31.98;20.27;;;;;;;;;;5005174;28;20091;-73
2022/10/20 06:48:26;;;;;;;34.45;21.15;;;;;;;;;;5001463;28;20038;-73
2022/10/20 06:51:00;;;;;;;34.10;20.77;;;;;;;;;;5004767;28;20040;-73
2022/10/20 06:53:26;;;;;;;32.67;19.67;;;;;;;;;;5004428;28;20061;-73
2022/10/20 06:55:57;;;;;;;27.30;16.58;;;;;;;;;;4985043;28;20089;-73
2022/10/20 06:58:23;;;;;;;38.70;21.35;;;;;;;;;;5007219;28;20037;-73
2022/10/20 07:00:57;;;;;;;34.28;19.38;;;;;;;;;;4998411;28;20034;-73
2022/10/20 07:03:23;;;;;;;26.40;16.40;;;;;;;;;;5003570;28;20033;-73
2022/10/20 07:05:49;;;;;;;31.15;16.60;;;;;;;;;;5009487;28;20030;-73
2022/10/20 07:08:15;;;;;;;28.17;15.07;;;;;;;;;;5007339;28;20030;-73
2022/10/20 07:10:41;;;;;;;24.20;15.20;;;;;;;;;;5009711;28;20409;-73
2022/10/20 07:13:07;;;;;;;29.08;16.88;;;;;;;;;;5007248;28;20045;-73
2022/10/20 07:15:33;;;;;;;26.25;13.20;;;;;;;;;;5007338;28;20624;-73
2022/10/20 07:17:59;;;;;;;35.03;13.40;;;;;;;;;;5008524;28;20029;-73
2022/10/20 07:20:25;;;;;;;25.23;11.80;;;;;;;;;;5011473;28;20492;-73
2022/10/20 07:22:51;;;;;;;20.80;9.32;;;;;;;;;;5012730;28;20029;-73
2022/10/20 07:25:20;;;;;;;17.25;9.98;;;;;;;;;;5006676;28;20034;-73
2022/10/20 07:27:46;;;;;;;26.88;11.68;;;;;;;;;;5007409;28;20143;-73
2022/10/20 07:30:13;;;;;;;21.80;10.45;;;;;;;;;;5008769;28;20529;-73
2022/10/20 07:32:39;;;;;;;24.73;11.80;;;;;;;;;;5000376;28;20125;-73
2022/10/20 07:35:05;;;;;;;22.17;10.50;;;;;;;;;;4997166;28;20053;-74
2022/10/20 07:37:31;;;;;;;19.02;10.75;;;;;;;;;;5010057;28;20026;-73
2022/10/20 07:39:57;;;;;;;20.92;9.25;;;;;;;;;;5007943;28;20061;-73
2022/10/20 07:42:23;;;;;;;21.75;9.43;;;;;;;;;;5007612;28;20026;-73
2022/10/20 07:44:49;;;;;;;19.85;9.73;;;;;;;;;;5011893;28;20499;-73
2022/10/20 07:47:15;;;;;;;31.80;13.07;;;;;;;;;;5009259;28;20121;-73
2022/10/20 07:49:41;;;;;;;18.30;11.13;;;;;;;;;;5014804;28;20823;-73
2022/10/20 07:52:07;;;;;;;24.63;11.52;;;;;;;;;;5008038;28;20044;-73
2022/10/20 07:54:33;;;;;;;21.35;10.48;;;;;;;;;;5011059;28;20062;-73
2022/10/20 07:56:59;;;;;;;17.80;9.38;;;;;;;;;;5009086;28;20033;-73
2022/10/20 07:59:25;;;;;;;20.48;8.20;;;;;;;;;;5013231;28;20038;-74
2022/10/20 08:01:51;;;;;;;18.33;7.75;;;;;;;;;;5008724;28;20399;-73
2022/10/20 08:04:17;;;;;;;16.80;7.22;;;;;;;;;;5011765;28;20076;-73
2022/10/20 08:06:46;;;;;;;14.00;6.53;;;;;;;;;;5004997;28;20489;-73
2022/10/20 08:09:12;;;;;;;14.30;7.10;;;;;;;;;;5009814;28;20133;-73
2022/10/20 08:11:38;;;;;;;13.70;7.75;;;;;;;;;;5011417;28;20861;-73
2022/10/20 08:14:04;;;;;;;21.65;7.22;;;;;;;;;;5008700;28;20080;-73
2022/10/20 08:16:30;;;;;;;15.77;6.93;;;;;;;;;;5004442;28;20033;-73
2022/10/20 08:18:56;;;;;;;18.05;7.22;;;;;;;;;;5006710;28;20045;-73
2022/10/20 08:21:23;;;;;;;18.20;7.38;;;;;;;;;;5008625;28;20061;-73
2022/10/20 08:23:49;;;;;;;23.08;7.97;;;;;;;;;;5005790;28;20590;-73
2022/10/20 08:26:19;;;;;;;22.20;6.88;;;;;;;;;;4991391;28;20026;-73
2022/10/20 08:28:46;;;;;;;21.63;6.93;;;;;;;;;;5008422;28;20034;-73
2022/10/20 08:31:12;;;;;;;14.80;6.43;;;;;;;;;;5006996;28;20037;-73
2022/10/20 08:33:39;;;;;;;18.20;7.20;;;;;;;;;;5007709;28;20046;-73
2022/10/20 08:36:07;;;;;;;14.73;6.65;;;;;;;;;;5011133;28;20485;-73
2022/10/20 08:38:33;;;;;;;20.70;6.65;;;;;;;;;;5004102;28;20760;-73
2022/10/20 08:41:00;;;;;;;19.88;7.45;;;;;;;;;;5009421;28;21335;-73
2022/10/20 08:43:27;;;;;;;16.85;7.47;;;;;;;;;;5007401;28;20042;-73
2022/10/20 08:45:53;;;;;;;24.55;9.32;;;;;;;;;;5007890;28;20033;-73
2022/10/20 08:48:29;;;;;;;20.25;8.73;;;;;;;;;;5009801;28;20828;-73
2022/10/20 08:50:56;;;;;;;24.48;9.48;;;;;;;;;;5005223;28;20108;-73
2022/10/20 08:53:23;;;;;;;20.80;10.25;;;;;;;;;;5006750;28;20048;-74
2022/10/20 08:55:50;;;;;;;19.30;7.57;;;;;;;;;;5006060;28;20128;-73
2022/10/20 08:58:20;;;;;;;18.38;6.63;;;;;;;;;;5009900;28;20377;-73
2022/10/20 09:00:46;;;;;;;16.33;6.90;;;;;;;;;;5005276;28;20108;-73
2022/10/20 09:03:17;;;;;;;18.73;5.72;;;;;;;;;;5004114;28;20042;-73
2022/10/20 09:05:44;;;;;;;17.27;5.95;;;;;;;;;;5005797;28;20022;-73
2022/10/20 09:08:10;;;;;;;16.90;5.55;;;;;;;;;;5003856;28;20152;-73
2022/10/20 09:10:42;;;;;;;16.98;6.32;;;;;;;;;;5010909;28;20034;-73
2022/10/20 09:13:14;;;;;;;16.40;6.40;;;;;;;;;;5005866;28;20870;-73
2022/10/20 09:15:40;;;;;;;16.15;6.43;;;;;;;;;;5004038;28;20034;-73
2022/10/20 09:18:09;;;;;;;16.13;7.13;;;;;;;;;;5007056;28;20070;-73
2022/10/20 09:20:42;;;;;;;18.23;6.22;;;;;;;;;;5010688;28;20117;-73
2022/10/20 09:23:18;;;;;;;20.67;5.70;;;;;;;;;;5007157;28;20036;-74
2022/10/20 09:25:45;;;;;;;13.85;5.55;;;;;;;;;;5010046;28;20042;-73
2022/10/20 09:28:17;;;;;;;18.52;5.93;;;;;;;;;;5005918;28;20029;-73
2022/10/20 09:30:44;;;;;;;18.42;5.50;;;;;;;;;;5001559;28;20058;-73
2022/10/20 09:33:22;;;;;;;16.02;4.15;;;;;;;;;;5003304;28;20073;-73
2022/10/20 09:35:48;;;;;;;14.60;5.82;;;;;;;;;;5004421;28;20036;-73
2022/10/20 09:38:28;;;;;;;15.43;4.10;;;;;;;;;;5007106;28;20038;-73
2022/10/20 09:40:54;;;;;;;15.38;4.28;;;;;;;;;;5003102;28;20037;-74
2022/10/20 09:43:20;;;;;;;18.48;5.05;;;;;;;;;;5008186;28;20042;-73
2022/10/20 09:45:51;;;;;;;14.73;4.63;;;;;;;;;;5006587;28;20033;-73
2022/10/20 09:48:18;;;;;;;13.95;4.13;;;;;;;;;;5008968;28;20172;-73
2022/10/20 09:50:46;;;;;;;19.25;4.22;;;;;;;;;;5007589;28;20037;-73
2022/10/20 09:53:18;;;;;;;9.13;4.00;;;;;;;;;;5005959;28;20042;-74
2022/10/20 09:55:48;;;;;;;11.75;3.35;;;;;;;;;;5005636;28;20051;-71
2022/10/20 09:58:17;;;;;;;13.98;3.88;;;;;;;;;;5010772;28;20037;-74
2022/10/20 10:00:54;;;;;;;14.55;3.67;;;;;;;;;;5004193;28;20655;-73
2022/10/20 10:03:21;;;;;;;10.32;3.70;;;;;;;;;;5006545;28;20433;-73
2022/10/20 10:05:57;;;;;;;10.88;4.22;;;;;;;;;;5005370;28;20065;-73
2022/10/20 10:08:25;;;;;;;13.48;3.10;;;;;;;;;;5002926;28;20076;-73
2022/10/20 10:10:59;;;;;;;11.20;2.92;;;;;;;;;;5007965;28;20033;-73
2022/10/20 10:13:26;;;;;;;14.27;3.13;;;;;;;;;;5006408;28;20034;-74
2022/10/20 10:16:00;;;;;;;16.25;3.58;;;;;;;;;;5006244;28;20037;-73
2022/10/20 10:18:26;;;;;;;8.73;2.25;;;;;;;;;;5010864;28;20029;-73
2022/10/20 10:20:59;;;;;;;14.32;3.10;;;;;;;;;;5004382;28;20037;-73
2022/10/20 10:23:26;;;;;;;9.40;2.60;;;;;;;;;;5006691;28;20037;-73
2022/10/20 10:25:53;;;;;;;13.55;2.97;;;;;;;;;;5003419;28;20087;-74
2022/10/20 10:28:22;;;;;;;12.93;3.90;;;;;;;;;;5004821;28;20527;-73
2022/10/20 10:30:48;;;;;;;14.85;5.95;;;;;;;;;;5004621;28;20417;-73
2022/10/20 10:33:27;;;;;;;11.38;4.28;;;;;;;;;;5003988;28;20131;-73
2022/10/20 10:35:54;;;;;;;15.70;4.70;;;;;;;;;;5006116;28;20048;-73
2022/10/20 10:38:20;;;;;;;17.17;3.45;;;;;;;;;;5008432;28;20049;-71
2022/10/20 10:40:55;;;;;;;11.23;3.42;;;;;;;;;;5009182;28;20030;-74
2022/10/20 10:43:28;;;;;;;9.18;3.85;;;;;;;;;;5007740;28;20083;-73
2022/10/20 10:45:58;;;;;;;15.18;2.92;;;;;;;;;;5012510;28;20026;-73
2022/10/20 10:48:36;;;;;;;9.40;3.10;;;;;;;;;;5009532;28;20030;-73
2022/10/20 10:51:05;;;;;;;9.30;2.70;;;;;;;;;;5005146;28;20038;-73
2022/10/20 10:54:07;;;;;;;14.38;3.13;;;;;;;;;;5005304;28;20037;-73
2022/10/20 10:56:40;;;;;;;15.25;2.67;;;;;;;;;;4926464;29;20063;-73
2022/10/20 10:59:11;;;;;;;9.57;3.08;;;;;;;;;;4998001;28;20054;-73
2022/10/20 11:01:40;;;;;;;7.57;2.75;;;;;;;;;;5010274;28;20030;-73
2022/10/20 11:04:32;;;;;;;9.30;2.92;;;;;;;;;;5006137;28;20043;-73
2022/10/20 11:06:58;;;;;;;;;;;;;;;;;;4983249;28;20041;-74
2022/10/20 11:09:31;;;;;;;13.50;3.08;;;;;;;;;;5013348;28;19980;-73
2022/10/20 11:11:57;;;;;;;13.13;3.15;;;;;;;;;;5008091;28;20045;-73
2022/10/20 11:14:33;;;;;;;13.63;3.45;;;;;;;;;;5008950;28;20033;-73
2022/10/20 11:16:59;;;;;;;12.90;3.88;;;;;;;;;;5006258;28;20781;-73
2022/10/20 11:19:24;;;;;;;15.10;3.03;;;;;;;;;;5005776;28;20034;-73
2022/10/20 11:21:50;;;;;;;12.13;3.28;;;;;;;;;;5012587;28;20403;-73
2022/10/20 11:24:23;;;;;;;12.77;3.03;;;;;;;;;;5008845;28;20053;-73
2022/10/20 11:26:53;;;;;;;15.98;3.67;;;;;;;;;;5008247;28;20030;-73
2022/10/20 11:29:39;;;;;;;11.20;2.92;;;;;;;;;;5013728;28;20490;-73
2022/10/20 11:32:05;;;;;;;14.98;4.00;;;;;;;;;;5001028;28;20099;-73
2022/10/20 11:35:00;;;;;;;17.75;3.83;;;;;;;;;;5010568;28;20466;-73
2022/10/20 11:37:47;;;;;;;16.00;4.35;;;;;;;;;;4986578;28;20116;-73
2022/10/20 11:40:18;;;;;;;14.50;4.18;;;;;;;;;;5007794;28;20034;-73
2022/10/20 11:42:48;;;;;;;13.07;3.90;;;;;;;;;;5014129;28;20061;-73
2022/10/20 11:45:24;;;;;;;16.92;4.30;;;;;;;;;;5009876;28;20025;-73
2022/10/20 11:47:53;;;;;;;17.45;4.18;;;;;;;;;;5008745;28;20030;-73
2022/10/20 11:50:19;;;;;;;19.30;4.10;;;;;;;;;;5010124;28;20030;-73
2022/10/20 11:53:04;;;;;;;18.60;3.55;;;;;;;;;;5009026;28;20033;-73
2022/10/20 11:55:35;;;;;;;13.80;3.97;;;;;;;;;;5003483;28;20053;-73
2022/10/20 11:58:08;;;;;;;16.35;4.50;;;;;;;;;;5012624;28;20042;-73
2022/10/20 12:00:37;;;;;;;18.42;4.95;;;;;;;;;;5003672;28;20026;-73
2022/10/20 12:03:09;;;;;;;18.75;5.03;;;;;;;;;;5007203;28;20963;-73
2022/10/20 12:05:41;;;;;;;17.45;5.10;;;;;;;;;;5008918;28;20037;-73
2022/10/20 12:08:18;;;;;;;14.38;4.57;;;;;;;;;;5009177;28;20084;-73
2022/10/20 12:10:50;;;;;;;17.73;5.10;;;;;;;;;;5009511;28;20018;-73
2022/10/20 12:13:16;;;;;;;16.50;5.53;;;;;;;;;;5002246;28;20416;-73
2022/10/20 12:15:49;;;;;;;15.35;5.40;;;;;;;;;;5008390;28;20768;-73
2022/10/20 12:18:36;;;;;;;14.93;5.03;;;;;;;;;;5008302;28;20069;-73
2022/10/20 12:21:02;;;;;;;12.93;4.55;;;;;;;;;;5009489;28;20681;-73
2022/10/20 12:23:44;;;;;;;13.45;4.10;;;;;;;;;;5004092;28;20504;-73
2022/10/20 12:26:29;;;;;;;13.85;3.97;;;;;;;;;;5007921;28;20033;-73
2022/10/20 12:29:05;;;;;;;20.20;4.65;;;;;;;;;;5006516;28;20075;-73
2022/10/20 12:31:50;;;;;;;17.88;4.30;;;;;;;;;;5008023;28;20032;-72
2022/10/20 12:34:23;;;;;;;19.73;3.83;;;;;;;;;;5001823;28;20041;-73
2022/10/20 12:36:49;;;;;;;10.25;4.07;;;;;;;;;;5008364;28;20044;-73
2022/10/20 12:39:16;;;;;;;18.17;5.00;;;;;;;;;;5005800;28;20370;-73
2022/10/20 12:41:55;;;;;;;18.17;6.25;;;;;;;;;;5007338;28;20038;-73
2022/10/20 12:44:21;;;;;;;16.90;5.93;;;;;;;;;;5005873;28;20041;-73
2022/10/20 12:46:54;;;;;;;15.85;6.57;;;;;;;;;;5006734;28;20022;-73
2022/10/20 12:49:23;;;;;;;15.55;5.32;;;;;;;;;;5007415;28;20171;-73
2022/10/20 12:51:51;;;;;;;18.77;4.93;;;;;;;;;;5007405;28;20436;-73
2022/10/20 12:54:19;;;;;;;18.75;5.18;;;;;;;;;;5004916;28;20412;-73
2022/10/20 12:56:45;;;;;;;15.73;4.72;;;;;;;;;;5003613;28;20036;-73
2022/10/20 12:59:27;;;;;;;16.52;5.40;;;;;;;;;;5006493;28;20229;-73
2022/10/20 13:02:19;;;;;;;21.10;5.50;;;;;;;;;;5012054;28;20495;-73
2022/10/20 13:04:45;;;;;;;;;;;;;;;;;;4987672;28;20387;-73
2022/10/20 13:07:11;;;;;;;15.55;5.18;;;;;;;;;;5001188;28;20003;-73
2022/10/20 13:09:54;;;;;;;22.60;6.30;;;;;;;;;;5012653;28;20029;-73
2022/10/20 13:12:28;;;;;;;18.52;5.47;;;;;;;;;;5003656;28;20056;-73
2022/10/20 13:14:55;;;;;;;19.15;6.07;;;;;;;;;;5006659;28;20061;-73
2022/10/20 13:17:23;;;;;;;18.05;5.95;;;;;;;;;;5006619;28;20040;-73
2022/10/20 13:19:49;;;;;;;16.88;5.30;;;;;;;;;;5006222;28;20035;-73
2022/10/20 13:22:27;;;;;;;15.98;5.85;;;;;;;;;;5007886;28;20036;-73
2022/10/20 13:24:54;;;;;;;19.40;6.15;;;;;;;;;;5008939;28;20038;-72
2022/10/20 13:27:20;;;;;;;20.60;9.00;;;;;;;;;;5007264;28;20030;-73
2022/10/20 13:29:46;;;;;;;20.92;7.43;;;;;;;;;;5007354;28;20030;-73
2022/10/20 13:32:12;;;;;;;18.98;4.82;;;;;;;;;;5002689;28;20033;-73
2022/10/20 13:34:45;;;;;;;13.02;3.50;;;;;;;;;;5005191;28;20030;-72
2022/10/20 13:37:20;;;;;;;10.15;3.50;;;;;;;;;;5007284;28;20045;-73
2022/10/20 13:39:55;;;;;;;12.13;3.30;;;;;;;;;;5004800;28;20034;-73
2022/10/20 13:42:35;;;;;;;14.77;4.03;;;;;;;;;;5005593;28;20057;-73
2022/10/20 13:45:03;;;;;;;16.33;4.68;;;;;;;;;;5007345;28;20041;-73
2022/10/20 13:47:32;;;;;;;19.50;5.32;;;;;;;;;;5000658;28;20030;-73
2022/10/20 13:50:04;;;;;;;20.98;5.53;;;;;;;;;;4987875;28;20064;-73
2022/10/20 13:52:32;;;;;;;15.52;6.15;;;;;;;;;;5007504;28;20058;-73
2022/10/20 13:54:59;;;;;;;12.90;4.82;;;;;;;;;;5006944;28;20164;-73
2022/10/20 13:57:30;;;;;;;16.70;5.05;;;;;;;;;;5001319;28;20624;-73
2022/10/20 13:59:57;;;;;;;16.27;4.38;;;;;;;;;;5011469;28;20045;-73
2022/10/20 14:02:25;;;;;;;16.10;4.55;;;;;;;;;;5008847;28;20573;-72
2022/10/20 14:05:01;;;;;;;11.50;3.33;;;;;;;;;;5004837;28;20075;-72
2022/10/20 14:07:35;;;;;;;12.52;3.20;;;;;;;;;;5005683;28;20763;-73
2022/10/20 14:10:01;;;;;;;12.98;3.83;;;;;;;;;;5003876;28;20052;-73
2022/10/20 14:12:27;;;;;;;10.20;3.15;;;;;;;;;;5012102;28;20752;-72
2022/10/20 14:14:55;;;;;;;15.38;3.40;;;;;;;;;;5002716;28;20034;-73
2022/10/20 14:17:22;;;;;;;13.65;4.50;;;;;;;;;;5006947;28;20120;-73
2022/10/20 14:19:49;;;;;;;12.25;4.45;;;;;;;;;;5006171;28;20125;-73
2022/10/20 14:22:15;;;;;;;15.70;4.10;;;;;;;;;;5003139;28;20463;-73
2022/10/20 14:24:45;;;;;;;18.10;3.40;;;;;;;;;;4999856;28;20501;-73
2022/10/20 14:27:22;;;;;;;12.88;3.05;;;;;;;;;;5005042;28;20456;-73
2022/10/20 14:29:49;;;;;;;17.05;3.85;;;;;;;;;;5004217;28;20721;-73
2022/10/20 14:32:16;;;;;;;17.17;4.60;;;;;;;;;;5005568;28;20113;-73
2022/10/20 14:34:53;;;;;;;17.17;4.10;;;;;;;;;;5007349;28;20066;-73